sensor_id;sensor_type;location;lat;lon;timestamp;P1;durP1;ratioP1;P2;durP2;ratioP2
1010;SDS011;494;48.744;10.106;2023-07-29T00:00:29;10.47;;;3.80;;
1010;SDS011;494;48.744;10.106;2023-07-29T00:02:58;8.77;;;3.23;;
1010;SDS011;494;48.744;10.106;2023-07-29T00:05:29;9.27;;;3.30;;
1010;SDS011;494;48.744;10.106;2023-07-29T00:08:00;10.10;;;3.77;;
1010;SDS011;494;48.744;10.106;2023-07-29T00:10:30;10.07;;;3.33;;
1010;SDS011;494;48.744;10.106;2023-07-29T00:13:11;13.00;;;3.17;;
1010;SDS011;494;48.744;10.106;2023-07-29T00:15:40;10.63;;;3.40;;
1010;SDS011;494;48.744;10.106;2023-07-29T00:18:15;9.43;;;3.10;;
1010;SDS011;494;48.744;10.106;2023-07-29T00:20:50;9.10;;;3.23;;
1010;SDS011;494;48.744;10.106;2023-07-29T00:23:22;10.90;;;3.30;;
1010;SDS011;494;48.744;10.106;2023-07-29T00:25:55;11.70;;;3.73;;
1010;SDS011;494;48.744;10.106;2023-07-29T00:28:32;13.67;;;3.00;;
1010;SDS011;494;48.744;10.106;2023-07-29T00:31:11;9.10;;;2.70;;
1010;SDS011;494;48.744;10.106;2023-07-29T00:33:45;10.20;;;3.17;;
1010;SDS011;494;48.744;10.106;2023-07-29T00:36:21;10.83;;;3.30;;
1010;SDS011;494;48.744;10.106;2023-07-29T00:38:53;11.50;;;3.40;;
1010;SDS011;494;48.744;10.106;2023-07-29T00:41:29;8.40;;;2.63;;
1010;SDS011;494;48.744;10.106;2023-07-29T00:44:00;10.30;;;2.80;;
1010;SDS011;494;48.744;10.106;2023-07-29T00:46:44;11.00;;;3.10;;
1010;SDS011;494;48.744;10.106;2023-07-29T00:49:18;9.10;;;3.27;;
1010;SDS011;494;48.744;10.106;2023-07-29T00:57:28;10.53;;;3.20;;
1010;SDS011;494;48.744;10.106;2023-07-29T01:00:02;8.90;;;2.80;;
1010;SDS011;494;48.744;10.106;2023-07-29T01:02:37;12.07;;;3.50;;
1010;SDS011;494;48.744;10.106;2023-07-29T01:05:08;9.03;;;3.10;;
1010;SDS011;494;48.744;10.106;2023-07-29T01:07:44;10.00;;;3.50;;
1010;SDS011;494;48.744;10.106;2023-07-29T01:10:30;9.57;;;3.17;;
1010;SDS011;494;48.744;10.106;2023-07-29T01:13:23;11.80;;;3.13;;
1010;SDS011;494;48.744;10.106;2023-07-29T01:16:19;14.10;;;2.90;;
1010;SDS011;494;48.744;10.106;2023-07-29T01:22:12;10.90;;;2.50;;
1010;SDS011;494;48.744;10.106;2023-07-29T01:25:02;8.67;;;2.60;;
1010;SDS011;494;48.744;10.106;2023-07-29T01:27:33;8.03;;;2.30;;
1010;SDS011;494;48.744;10.106;2023-07-29T01:30:05;7.90;;;1.87;;
1010;SDS011;494;48.744;10.106;2023-07-29T01:32:47;8.33;;;2.60;;
1010;SDS011;494;48.744;10.106;2023-07-29T01:35:31;8.47;;;2.20;;
1010;SDS011;494;48.744;10.106;2023-07-29T01:38:17;10.83;;;2.40;;
1010;SDS011;494;48.744;10.106;2023-07-29T01:40:54;13.40;;;2.70;;
1010;SDS011;494;48.744;10.106;2023-07-29T01:43:30;8.97;;;2.77;;
1010;SDS011;494;48.744;10.106;2023-07-29T01:46:00;10.93;;;2.87;;
1010;SDS011;494;48.744;10.106;2023-07-29T01:48:31;8.90;;;2.63;;
1010;SDS011;494;48.744;10.106;2023-07-29T01:51:02;9.30;;;2.27;;
1010;SDS011;494;48.744;10.106;2023-07-29T01:53:48;9.57;;;2.30;;
1010;SDS011;494;48.744;10.106;2023-07-29T01:56:19;8.10;;;1.80;;
1010;SDS011;494;48.744;10.106;2023-07-29T01:58:51;9.03;;;2.10;;
1010;SDS011;494;48.744;10.106;2023-07-29T02:01:20;9.73;;;2.30;;
1010;SDS011;494;48.744;10.106;2023-07-29T02:03:52;10.43;;;2.30;;
1010;SDS011;494;48.744;10.106;2023-07-29T02:06:22;8.93;;;2.37;;
1010;SDS011;494;48.744;10.106;2023-07-29T02:08:54;8.67;;;2.17;;
1010;SDS011;494;48.744;10.106;2023-07-29T02:11:27;9.07;;;2.10;;
1010;SDS011;494;48.744;10.106;2023-07-29T02:13:56;10.50;;;2.47;;
1010;SDS011;494;48.744;10.106;2023-07-29T02:16:27;11.50;;;3.10;;
1010;SDS011;494;48.744;10.106;2023-07-29T02:18:57;8.30;;;2.43;;
1010;SDS011;494;48.744;10.106;2023-07-29T02:21:29;8.60;;;2.43;;
1010;SDS011;494;48.744;10.106;2023-07-29T02:24:00;10.33;;;2.80;;
1010;SDS011;494;48.744;10.106;2023-07-29T02:26:31;9.63;;;2.60;;
1010;SDS011;494;48.744;10.106;2023-07-29T02:29:01;9.70;;;3.30;;
1010;SDS011;494;48.744;10.106;2023-07-29T02:31:33;10.83;;;4.00;;
1010;SDS011;494;48.744;10.106;2023-07-29T02:34:04;10.00;;;3.23;;
1010;SDS011;494;48.744;10.106;2023-07-29T02:36:34;8.90;;;2.90;;
1010;SDS011;494;48.744;10.106;2023-07-29T02:39:04;12.20;;;2.70;;
1010;SDS011;494;48.744;10.106;2023-07-29T02:41:36;8.97;;;2.03;;
1010;SDS011;494;48.744;10.106;2023-07-29T02:44:09;9.07;;;2.47;;
1010;SDS011;494;48.744;10.106;2023-07-29T02:46:40;11.53;;;2.77;;
1010;SDS011;494;48.744;10.106;2023-07-29T02:49:10;15.30;;;3.90;;
1010;SDS011;494;48.744;10.106;2023-07-29T02:51:40;13.17;;;4.30;;
1010;SDS011;494;48.744;10.106;2023-07-29T02:54:11;13.73;;;3.90;;
1010;SDS011;494;48.744;10.106;2023-07-29T02:56:44;10.77;;;3.80;;
1010;SDS011;494;48.744;10.106;2023-07-29T02:59:17;10.83;;;3.27;;
1010;SDS011;494;48.744;10.106;2023-07-29T03:01:51;11.00;;;3.37;;
1010;SDS011;494;48.744;10.106;2023-07-29T03:04:22;14.07;;;4.30;;
1010;SDS011;494;48.744;10.106;2023-07-29T03:07:00;11.17;;;4.73;;
1010;SDS011;494;48.744;10.106;2023-07-29T03:09:29;13.53;;;5.13;;
1010;SDS011;494;48.744;10.106;2023-07-29T03:12:13;17.10;;;5.33;;
1010;SDS011;494;48.744;10.106;2023-07-29T03:14:42;10.87;;;4.93;;
1010;SDS011;494;48.744;10.106;2023-07-29T03:17:17;13.07;;;5.13;;
1010;SDS011;494;48.744;10.106;2023-07-29T03:19:48;10.83;;;4.10;;
1010;SDS011;494;48.744;10.106;2023-07-29T03:25:23;8.30;;;2.60;;
1010;SDS011;494;48.744;10.106;2023-07-29T03:33:38;11.10;;;4.53;;
1010;SDS011;494;48.744;10.106;2023-07-29T03:36:15;11.70;;;4.50;;
1010;SDS011;494;48.744;10.106;2023-07-29T03:38:48;11.20;;;3.40;;
1010;SDS011;494;48.744;10.106;2023-07-29T03:41:36;11.00;;;3.17;;
1010;SDS011;494;48.744;10.106;2023-07-29T03:44:08;9.40;;;3.50;;
1010;SDS011;494;48.744;10.106;2023-07-29T03:46:47;8.50;;;2.83;;
1010;SDS011;494;48.744;10.106;2023-07-29T03:52:13;12.73;;;3.90;;
1010;SDS011;494;48.744;10.106;2023-07-29T03:54:47;11.60;;;5.20;;
1010;SDS011;494;48.744;10.106;2023-07-29T03:57:21;13.43;;;5.93;;
1010;SDS011;494;48.744;10.106;2023-07-29T03:59:59;13.77;;;6.07;;
1010;SDS011;494;48.744;10.106;2023-07-29T04:02:32;15.13;;;6.93;;
1010;SDS011;494;48.744;10.106;2023-07-29T04:05:07;15.60;;;8.07;;
1010;SDS011;494;48.744;10.106;2023-07-29T04:07:53;15.17;;;6.80;;
1010;SDS011;494;48.744;10.106;2023-07-29T04:10:23;15.67;;;7.90;;
1010;SDS011;494;48.744;10.106;2023-07-29T04:12:54;15.50;;;7.47;;
1010;SDS011;494;48.744;10.106;2023-07-29T04:15:24;17.33;;;7.30;;
1010;SDS011;494;48.744;10.106;2023-07-29T04:17:54;14.23;;;7.77;;
1010;SDS011;494;48.744;10.106;2023-07-29T04:20:38;18.90;;;7.63;;
1010;SDS011;494;48.744;10.106;2023-07-29T04:23:14;17.73;;;7.77;;
1010;SDS011;494;48.744;10.106;2023-07-29T04:25:45;15.20;;;7.10;;
1010;SDS011;494;48.744;10.106;2023-07-29T04:28:16;16.73;;;8.07;;
1010;SDS011;494;48.744;10.106;2023-07-29T04:30:46;19.03;;;8.67;;
1010;SDS011;494;48.744;10.106;2023-07-29T04:33:15;17.63;;;8.20;;
1010;SDS011;494;48.744;10.106;2023-07-29T04:35:46;15.83;;;8.23;;
1010;SDS011;494;48.744;10.106;2023-07-29T04:38:18;13.20;;;6.90;;
1010;SDS011;494;48.744;10.106;2023-07-29T04:40:48;15.23;;;7.93;;
1010;SDS011;494;48.744;10.106;2023-07-29T04:43:19;11.80;;;5.57;;
1010;SDS011;494;48.744;10.106;2023-07-29T04:45:48;14.43;;;4.60;;
1010;SDS011;494;48.744;10.106;2023-07-29T04:48:20;12.47;;;5.00;;
1010;SDS011;494;48.744;10.106;2023-07-29T04:50:51;13.00;;;5.13;;
1010;SDS011;494;48.744;10.106;2023-07-29T04:53:24;11.70;;;4.40;;
1010;SDS011;494;48.744;10.106;2023-07-29T04:55:54;9.43;;;3.83;;
1010;SDS011;494;48.744;10.106;2023-07-29T04:58:25;10.30;;;3.47;;
1010;SDS011;494;48.744;10.106;2023-07-29T05:01:02;10.90;;;3.40;;
1010;SDS011;494;48.744;10.106;2023-07-29T05:03:33;11.70;;;3.30;;
1010;SDS011;494;48.744;10.106;2023-07-29T05:06:03;10.03;;;3.40;;
1010;SDS011;494;48.744;10.106;2023-07-29T05:08:36;10.20;;;3.20;;
1010;SDS011;494;48.744;10.106;2023-07-29T05:11:07;10.10;;;3.90;;
1010;SDS011;494;48.744;10.106;2023-07-29T05:13:37;11.97;;;4.60;;
1010;SDS011;494;48.744;10.106;2023-07-29T05:16:10;10.93;;;5.27;;
1010;SDS011;494;48.744;10.106;2023-07-29T05:18:39;15.77;;;9.33;;
1010;SDS011;494;48.744;10.106;2023-07-29T05:21:09;19.13;;;10.73;;
1010;SDS011;494;48.744;10.106;2023-07-29T05:23:46;21.47;;;12.10;;
1010;SDS011;494;48.744;10.106;2023-07-29T05:26:17;23.40;;;12.90;;
1010;SDS011;494;48.744;10.106;2023-07-29T05:28:46;26.00;;;12.77;;
1010;SDS011;494;48.744;10.106;2023-07-29T05:31:18;20.90;;;12.63;;
1010;SDS011;494;48.744;10.106;2023-07-29T05:33:48;26.07;;;13.43;;
1010;SDS011;494;48.744;10.106;2023-07-29T05:36:19;27.87;;;13.20;;
1010;SDS011;494;48.744;10.106;2023-07-29T05:38:50;24.40;;;14.27;;
1010;SDS011;494;48.744;10.106;2023-07-29T05:41:20;24.23;;;14.77;;
1010;SDS011;494;48.744;10.106;2023-07-29T05:43:54;26.10;;;14.73;;
1010;SDS011;494;48.744;10.106;2023-07-29T05:46:28;30.40;;;15.00;;
1010;SDS011;494;48.744;10.106;2023-07-29T05:49:06;25.57;;;14.77;;
1010;SDS011;494;48.744;10.106;2023-07-29T05:51:36;24.20;;;15.47;;
1010;SDS011;494;48.744;10.106;2023-07-29T05:54:07;24.37;;;14.40;;
1010;SDS011;494;48.744;10.106;2023-07-29T05:56:40;17.70;;;10.53;;
1010;SDS011;494;48.744;10.106;2023-07-29T05:59:13;13.60;;;7.50;;
1010;SDS011;494;48.744;10.106;2023-07-29T06:01:43;15.17;;;6.47;;
1010;SDS011;494;48.744;10.106;2023-07-29T06:04:13;22.20;;;6.00;;
1010;SDS011;494;48.744;10.106;2023-07-29T06:06:43;16.80;;;6.53;;
1010;SDS011;494;48.744;10.106;2023-07-29T06:09:14;23.83;;;8.10;;
1010;SDS011;494;48.744;10.106;2023-07-29T06:11:43;16.77;;;8.80;;
1010;SDS011;494;48.744;10.106;2023-07-29T06:14:16;15.83;;;8.97;;
1010;SDS011;494;48.744;10.106;2023-07-29T06:16:46;19.57;;;9.90;;
1010;SDS011;494;48.744;10.106;2023-07-29T06:19:17;30.77;;;12.20;;
1010;SDS011;494;48.744;10.106;2023-07-29T06:50:05;25.03;;;15.50;;
1010;SDS011;494;48.744;10.106;2023-07-29T06:52:34;23.30;;;15.03;;
1010;SDS011;494;48.744;10.106;2023-07-29T06:55:05;24.03;;;14.93;;
1010;SDS011;494;48.744;10.106;2023-07-29T06:57:34;26.37;;;15.23;;
1010;SDS011;494;48.744;10.106;2023-07-29T07:00:06;24.33;;;15.27;;
1010;SDS011;494;48.744;10.106;2023-07-29T07:02:37;26.90;;;14.37;;
1010;SDS011;494;48.744;10.106;2023-07-29T07:05:10;23.30;;;13.50;;
1010;SDS011;494;48.744;10.106;2023-07-29T07:07:39;20.17;;;11.90;;
1010;SDS011;494;48.744;10.106;2023-07-29T07:10:09;20.80;;;11.17;;
1010;SDS011;494;48.744;10.106;2023-07-29T07:12:38;19.40;;;10.60;;
1010;SDS011;494;48.744;10.106;2023-07-29T07:15:08;15.60;;;10.30;;
1010;SDS011;494;48.744;10.106;2023-07-29T07:17:39;18.70;;;10.77;;
1010;SDS011;494;48.744;10.106;2023-07-29T07:20:10;19.27;;;11.27;;
1010;SDS011;494;48.744;10.106;2023-07-29T07:22:39;18.53;;;10.70;;
1010;SDS011;494;48.744;10.106;2023-07-29T07:25:08;16.90;;;10.73;;
1010;SDS011;494;48.744;10.106;2023-07-29T07:27:41;18.40;;;11.73;;
1010;SDS011;494;48.744;10.106;2023-07-29T07:30:10;22.43;;;10.90;;
1010;SDS011;494;48.744;10.106;2023-07-29T07:32:41;16.07;;;10.17;;
1010;SDS011;494;48.744;10.106;2023-07-29T07:35:13;16.83;;;9.47;;
1010;SDS011;494;48.744;10.106;2023-07-29T07:37:43;14.27;;;8.50;;
1010;SDS011;494;48.744;10.106;2023-07-29T07:40:14;16.30;;;9.20;;
1010;SDS011;494;48.744;10.106;2023-07-29T07:45:43;16.60;;;9.30;;
1010;SDS011;494;48.744;10.106;2023-07-29T07:48:12;19.90;;;8.83;;
1010;SDS011;494;48.744;10.106;2023-07-29T07:50:45;18.03;;;8.90;;
1010;SDS011;494;48.744;10.106;2023-07-29T07:53:14;18.93;;;8.97;;
1010;SDS011;494;48.744;10.106;2023-07-29T07:55:44;16.87;;;9.53;;
1010;SDS011;494;48.744;10.106;2023-07-29T07:58:14;16.40;;;7.57;;
1010;SDS011;494;48.744;10.106;2023-07-29T08:00:44;15.20;;;8.50;;
1010;SDS011;494;48.744;10.106;2023-07-29T08:03:13;17.80;;;8.20;;
1010;SDS011;494;48.744;10.106;2023-07-29T08:05:43;14.47;;;7.07;;
1010;SDS011;494;48.744;10.106;2023-07-29T08:08:16;16.50;;;6.40;;
1010;SDS011;494;48.744;10.106;2023-07-29T08:10:45;12.80;;;6.23;;
1010;SDS011;494;48.744;10.106;2023-07-29T08:13:15;15.17;;;5.93;;
1010;SDS011;494;48.744;10.106;2023-07-29T08:15:45;12.60;;;5.60;;
1010;SDS011;494;48.744;10.106;2023-07-29T08:18:15;10.13;;;3.60;;
1010;SDS011;494;48.744;10.106;2023-07-29T08:23:32;9.93;;;3.00;;
1010;SDS011;494;48.744;10.106;2023-07-29T08:26:03;8.93;;;2.80;;
1010;SDS011;494;48.744;10.106;2023-07-29T08:28:35;10.17;;;2.77;;
1010;SDS011;494;48.744;10.106;2023-07-29T08:31:05;8.93;;;2.60;;
1010;SDS011;494;48.744;10.106;2023-07-29T08:33:35;9.80;;;2.70;;
1010;SDS011;494;48.744;10.106;2023-07-29T08:36:06;8.33;;;2.30;;
1010;SDS011;494;48.744;10.106;2023-07-29T08:38:35;8.10;;;2.50;;
1010;SDS011;494;48.744;10.106;2023-07-29T08:41:06;8.87;;;2.60;;
1010;SDS011;494;48.744;10.106;2023-07-29T08:43:43;8.30;;;2.37;;
1010;SDS011;494;48.744;10.106;2023-07-29T08:46:29;7.77;;;2.00;;
1010;SDS011;494;48.744;10.106;2023-07-29T08:48:59;8.30;;;2.13;;
1010;SDS011;494;48.744;10.106;2023-07-29T08:51:31;8.90;;;2.37;;
1010;SDS011;494;48.744;10.106;2023-07-29T08:54:00;11.63;;;2.87;;
1010;SDS011;494;48.744;10.106;2023-07-29T08:56:32;8.83;;;2.70;;
1010;SDS011;494;48.744;10.106;2023-07-29T08:59:03;10.60;;;2.90;;
1010;SDS011;494;48.744;10.106;2023-07-29T09:01:32;8.73;;;3.00;;
1010;SDS011;494;48.744;10.106;2023-07-29T09:04:02;8.67;;;2.30;;
1010;SDS011;494;48.744;10.106;2023-07-29T09:06:35;8.37;;;2.57;;
1010;SDS011;494;48.744;10.106;2023-07-29T09:09:08;9.07;;;2.70;;
1010;SDS011;494;48.744;10.106;2023-07-29T09:11:38;9.50;;;2.73;;
1010;SDS011;494;48.744;10.106;2023-07-29T09:14:09;10.30;;;3.00;;
1010;SDS011;494;48.744;10.106;2023-07-29T09:16:38;7.80;;;2.40;;
1010;SDS011;494;48.744;10.106;2023-07-29T09:19:08;8.63;;;2.30;;
1010;SDS011;494;48.744;10.106;2023-07-29T09:21:40;7.93;;;2.23;;
1010;SDS011;494;48.744;10.106;2023-07-29T09:24:11;8.53;;;2.80;;
1010;SDS011;494;48.744;10.106;2023-07-29T09:26:49;7.97;;;2.10;;
1010;SDS011;494;48.744;10.106;2023-07-29T09:29:22;9.23;;;2.80;;
1010;SDS011;494;48.744;10.106;2023-07-29T09:32:02;7.70;;;2.40;;
1010;SDS011;494;48.744;10.106;2023-07-29T09:34:49;8.53;;;2.80;;
1010;SDS011;494;48.744;10.106;2023-07-29T09:37:21;8.67;;;2.67;;
1010;SDS011;494;48.744;10.106;2023-07-29T09:39:51;8.57;;;2.53;;
1010;SDS011;494;48.744;10.106;2023-07-29T09:42:26;8.83;;;2.90;;
1010;SDS011;494;48.744;10.106;2023-07-29T09:44:56;8.80;;;2.60;;
1010;SDS011;494;48.744;10.106;2023-07-29T09:47:25;8.90;;;2.73;;
1010;SDS011;494;48.744;10.106;2023-07-29T09:49:57;9.20;;;2.60;;
1010;SDS011;494;48.744;10.106;2023-07-29T09:52:30;8.27;;;2.27;;
1010;SDS011;494;48.744;10.106;2023-07-29T09:55:01;9.53;;;2.40;;
1010;SDS011;494;48.744;10.106;2023-07-29T09:57:33;8.70;;;2.67;;
1010;SDS011;494;48.744;10.106;2023-07-29T10:00:07;10.70;;;2.87;;
1010;SDS011;494;48.744;10.106;2023-07-29T10:02:42;8.57;;;2.43;;
1010;SDS011;494;48.744;10.106;2023-07-29T10:05:13;8.47;;;2.43;;
1010;SDS011;494;48.744;10.106;2023-07-29T10:07:49;9.43;;;2.50;;
1010;SDS011;494;48.744;10.106;2023-07-29T10:10:23;8.80;;;2.73;;
1010;SDS011;494;48.744;10.106;2023-07-29T10:12:53;8.90;;;2.70;;
1010;SDS011;494;48.744;10.106;2023-07-29T10:15:28;9.80;;;2.80;;
1010;SDS011;494;48.744;10.106;2023-07-29T10:18:01;8.90;;;2.60;;
1010;SDS011;494;48.744;10.106;2023-07-29T10:20:32;10.30;;;2.60;;
1010;SDS011;494;48.744;10.106;2023-07-29T10:25:58;8.47;;;2.00;;
1010;SDS011;494;48.744;10.106;2023-07-29T10:28:53;11.67;;;4.50;;
1010;SDS011;494;48.744;10.106;2023-07-29T10:31:50;9.20;;;2.90;;
1010;SDS011;494;48.744;10.106;2023-07-29T10:34:28;10.10;;;3.00;;
1010;SDS011;494;48.744;10.106;2023-07-29T10:37:11;10.97;;;4.20;;
1010;SDS011;494;48.744;10.106;2023-07-29T10:39:51;10.20;;;2.90;;
1010;SDS011;494;48.744;10.106;2023-07-29T10:42:22;9.40;;;3.10;;
1010;SDS011;494;48.744;10.106;2023-07-29T10:44:51;9.70;;;3.37;;
1010;SDS011;494;48.744;10.106;2023-07-29T10:47:23;10.60;;;3.37;;
1010;SDS011;494;48.744;10.106;2023-07-29T10:49:55;10.87;;;3.40;;
1010;SDS011;494;48.744;10.106;2023-07-29T10:52:30;9.83;;;3.40;;
1010;SDS011;494;48.744;10.106;2023-07-29T10:55:31;10.87;;;3.30;;
1010;SDS011;494;48.744;10.106;2023-07-29T10:58:07;11.97;;;3.40;;
1010;SDS011;494;48.744;10.106;2023-07-29T11:00:42;12.33;;;3.43;;
1010;SDS011;494;48.744;10.106;2023-07-29T11:03:12;11.57;;;3.70;;
1010;SDS011;494;48.744;10.106;2023-07-29T11:05:45;9.90;;;3.60;;
1010;SDS011;494;48.744;10.106;2023-07-29T11:08:19;11.93;;;3.83;;
1010;SDS011;494;48.744;10.106;2023-07-29T11:11:01;10.77;;;3.87;;
1010;SDS011;494;48.744;10.106;2023-07-29T11:13:36;10.63;;;3.70;;
1010;SDS011;494;48.744;10.106;2023-07-29T11:16:09;10.23;;;3.73;;
1010;SDS011;494;48.744;10.106;2023-07-29T11:18:44;10.93;;;3.63;;
1010;SDS011;494;48.744;10.106;2023-07-29T11:21:18;12.07;;;4.57;;
1010;SDS011;494;48.744;10.106;2023-07-29T11:23:47;10.00;;;3.57;;
1010;SDS011;494;48.744;10.106;2023-07-29T11:26:24;10.87;;;3.97;;
1010;SDS011;494;48.744;10.106;2023-07-29T11:28:53;10.50;;;3.77;;
1010;SDS011;494;48.744;10.106;2023-07-29T11:31:24;10.80;;;3.97;;
1010;SDS011;494;48.744;10.106;2023-07-29T11:34:07;10.90;;;4.17;;
1010;SDS011;494;48.744;10.106;2023-07-29T11:36:37;11.60;;;4.53;;
1010;SDS011;494;48.744;10.106;2023-07-29T11:39:09;12.63;;;4.40;;
1010;SDS011;494;48.744;10.106;2023-07-29T11:41:44;9.80;;;2.40;;
1010;SDS011;494;48.744;10.106;2023-07-29T11:44:17;9.33;;;2.00;;
1010;SDS011;494;48.744;10.106;2023-07-29T11:46:48;9.37;;;1.77;;
1010;SDS011;494;48.744;10.106;2023-07-29T11:49:20;19.87;;;3.10;;
1010;SDS011;494;48.744;10.106;2023-07-29T11:52:16;10.90;;;3.90;;
1010;SDS011;494;48.744;10.106;2023-07-29T11:54:52;10.13;;;3.50;;
1010;SDS011;494;48.744;10.106;2023-07-29T11:57:38;11.40;;;3.63;;
1010;SDS011;494;48.744;10.106;2023-07-29T12:00:09;9.10;;;3.50;;
1010;SDS011;494;48.744;10.106;2023-07-29T12:02:42;8.80;;;3.27;;
1010;SDS011;494;48.744;10.106;2023-07-29T12:05:17;8.90;;;3.50;;
1010;SDS011;494;48.744;10.106;2023-07-29T12:07:50;9.47;;;3.30;;
1010;SDS011;494;48.744;10.106;2023-07-29T12:10:20;10.10;;;4.17;;
1010;SDS011;494;48.744;10.106;2023-07-29T12:12:52;9.00;;;4.20;;
1010;SDS011;494;48.744;10.106;2023-07-29T12:15:22;9.57;;;4.53;;
1010;SDS011;494;48.744;10.106;2023-07-29T12:17:54;9.50;;;4.70;;
1010;SDS011;494;48.744;10.106;2023-07-29T12:20:30;10.23;;;5.27;;
1010;SDS011;494;48.744;10.106;2023-07-29T12:23:00;10.10;;;6.10;;
1010;SDS011;494;48.744;10.106;2023-07-29T12:25:32;11.30;;;7.10;;
1010;SDS011;494;48.744;10.106;2023-07-29T12:28:05;11.17;;;8.10;;
1010;SDS011;494;48.744;10.106;2023-07-29T12:30:40;12.30;;;7.77;;
1010;SDS011;494;48.744;10.106;2023-07-29T12:33:11;12.40;;;7.90;;
1010;SDS011;494;48.744;10.106;2023-07-29T12:35:58;11.30;;;7.60;;
1010;SDS011;494;48.744;10.106;2023-07-29T12:38:29;11.53;;;7.30;;
1010;SDS011;494;48.744;10.106;2023-07-29T12:41:02;12.07;;;7.40;;
1010;SDS011;494;48.744;10.106;2023-07-29T12:46:36;10.83;;;6.53;;
1010;SDS011;494;48.744;10.106;2023-07-29T12:49:19;10.70;;;5.50;;
1010;SDS011;494;48.744;10.106;2023-07-29T12:51:49;10.47;;;5.20;;
1010;SDS011;494;48.744;10.106;2023-07-29T12:54:18;13.27;;;5.60;;
1010;SDS011;494;48.744;10.106;2023-07-29T12:56:48;13.40;;;7.20;;
1010;SDS011;494;48.744;10.106;2023-07-29T12:59:44;11.30;;;6.60;;
1010;SDS011;494;48.744;10.106;2023-07-29T13:02:15;11.53;;;7.23;;
1010;SDS011;494;48.744;10.106;2023-07-29T13:04:46;11.93;;;7.83;;
1010;SDS011;494;48.744;10.106;2023-07-29T13:07:16;13.17;;;8.00;;
1010;SDS011;494;48.744;10.106;2023-07-29T13:09:46;11.33;;;7.00;;
1010;SDS011;494;48.744;10.106;2023-07-29T13:12:17;11.80;;;7.30;;
1010;SDS011;494;48.744;10.106;2023-07-29T13:14:48;13.03;;;8.13;;
1010;SDS011;494;48.744;10.106;2023-07-29T13:17:18;12.33;;;4.23;;
1010;SDS011;494;48.744;10.106;2023-07-29T13:19:49;11.17;;;7.33;;
1010;SDS011;494;48.744;10.106;2023-07-29T13:22:19;12.73;;;7.33;;
1010;SDS011;494;48.744;10.106;2023-07-29T13:24:51;15.50;;;7.70;;
1010;SDS011;494;48.744;10.106;2023-07-29T13:27:20;28.90;;;25.90;;
1010;SDS011;494;48.744;10.106;2023-07-29T13:29:52;12.13;;;8.10;;
1010;SDS011;494;48.744;10.106;2023-07-29T13:32:24;12.53;;;8.00;;
1010;SDS011;494;48.744;10.106;2023-07-29T13:35:01;13.00;;;7.30;;
1010;SDS011;494;48.744;10.106;2023-07-29T13:37:32;13.63;;;6.87;;
1010;SDS011;494;48.744;10.106;2023-07-29T13:40:16;12.57;;;7.40;;
1010;SDS011;494;48.744;10.106;2023-07-29T13:42:50;11.93;;;6.33;;
1010;SDS011;494;48.744;10.106;2023-07-29T13:48:34;13.30;;;6.03;;
1010;SDS011;494;48.744;10.106;2023-07-29T13:51:08;11.57;;;6.50;;
1010;SDS011;494;48.744;10.106;2023-07-29T13:54:17;14.83;;;6.60;;
1010;SDS011;494;48.744;10.106;2023-07-29T13:56:48;11.80;;;6.30;;
1010;SDS011;494;48.744;10.106;2023-07-29T13:59:37;13.20;;;6.87;;
1010;SDS011;494;48.744;10.106;2023-07-29T14:23:36;13.17;;;8.10;;
1010;SDS011;494;48.744;10.106;2023-07-29T14:26:10;14.27;;;9.50;;
1010;SDS011;494;48.744;10.106;2023-07-29T14:28:54;13.00;;;9.20;;
1010;SDS011;494;48.744;10.106;2023-07-29T14:31:50;12.70;;;8.93;;
1010;SDS011;494;48.744;10.106;2023-07-29T14:35:18;14.00;;;10.20;;
1010;SDS011;494;48.744;10.106;2023-07-29T14:38:16;13.20;;;9.30;;
1010;SDS011;494;48.744;10.106;2023-07-29T14:41:16;12.70;;;8.10;;
1010;SDS011;494;48.744;10.106;2023-07-29T14:44:02;13.20;;;7.27;;
1010;SDS011;494;48.744;10.106;2023-07-29T14:46:49;13.60;;;7.90;;
1010;SDS011;494;48.744;10.106;2023-07-29T14:49:43;12.40;;;7.60;;
1010;SDS011;494;48.744;10.106;2023-07-29T14:52:19;12.10;;;7.10;;
1010;SDS011;494;48.744;10.106;2023-07-29T15:04:20;12.03;;;7.53;;
1010;SDS011;494;48.744;10.106;2023-07-29T15:06:51;19.93;;;15.37;;
1010;SDS011;494;48.744;10.106;2023-07-29T15:09:21;15.83;;;10.00;;
1010;SDS011;494;48.744;10.106;2023-07-29T15:11:58;16.03;;;7.67;;
1010;SDS011;494;48.744;10.106;2023-07-29T15:14:28;14.13;;;7.80;;
1010;SDS011;494;48.744;10.106;2023-07-29T15:17:00;13.90;;;8.23;;
1010;SDS011;494;48.744;10.106;2023-07-29T15:19:37;16.50;;;8.17;;
1010;SDS011;494;48.744;10.106;2023-07-29T15:22:20;13.20;;;8.17;;
1010;SDS011;494;48.744;10.106;2023-07-29T15:25:04;13.33;;;8.20;;
1010;SDS011;494;48.744;10.106;2023-07-29T15:27:40;15.40;;;8.23;;
1010;SDS011;494;48.744;10.106;2023-07-29T16:00:51;15.80;;;8.70;;
1010;SDS011;494;48.744;10.106;2023-07-29T16:03:34;14.70;;;9.13;;
1010;SDS011;494;48.744;10.106;2023-07-29T16:06:28;14.27;;;7.33;;
1010;SDS011;494;48.744;10.106;2023-07-29T16:09:23;13.67;;;8.03;;
1010;SDS011;494;48.744;10.106;2023-07-29T16:12:47;13.00;;;8.00;;
1010;SDS011;494;48.744;10.106;2023-07-29T16:15:39;13.00;;;7.37;;
1010;SDS011;494;48.744;10.106;2023-07-29T16:18:41;14.80;;;7.50;;
1010;SDS011;494;48.744;10.106;2023-07-29T16:21:26;13.60;;;8.60;;
1010;SDS011;494;48.744;10.106;2023-07-29T16:24:09;14.10;;;8.80;;
1010;SDS011;494;48.744;10.106;2023-07-29T16:26:47;15.20;;;8.50;;
1010;SDS011;494;48.744;10.106;2023-07-29T16:29:34;12.53;;;8.00;;
1010;SDS011;494;48.744;10.106;2023-07-29T16:32:05;15.67;;;8.20;;
1010;SDS011;494;48.744;10.106;2023-07-29T16:52:39;12.63;;;7.30;;
1010;SDS011;494;48.744;10.106;2023-07-29T18:19:26;14.33;;;5.60;;
1010;SDS011;494;48.744;10.106;2023-07-29T18:22:25;13.80;;;5.40;;
1010;SDS011;494;48.744;10.106;2023-07-29T18:25:29;11.90;;;4.83;;
1010;SDS011;494;48.744;10.106;2023-07-29T18:28:16;12.83;;;4.70;;
1010;SDS011;494;48.744;10.106;2023-07-29T18:31:32;11.73;;;4.23;;
1010;SDS011;494;48.744;10.106;2023-07-29T18:38:35;12.80;;;5.03;;
1010;SDS011;494;48.744;10.106;2023-07-29T18:41:28;15.40;;;5.17;;
1010;SDS011;494;48.744;10.106;2023-07-29T18:44:19;14.50;;;5.10;;
1010;SDS011;494;48.744;10.106;2023-07-29T18:47:33;14.40;;;5.50;;
1010;SDS011;494;48.744;10.106;2023-07-29T18:53:55;12.23;;;5.13;;
1010;SDS011;494;48.744;10.106;2023-07-29T18:56:33;13.10;;;5.60;;
1010;SDS011;494;48.744;10.106;2023-07-29T18:59:26;12.00;;;5.23;;
1010;SDS011;494;48.744;10.106;2023-07-29T19:03:04;14.53;;;6.23;;
1010;SDS011;494;48.744;10.106;2023-07-29T19:06:35;14.13;;;5.40;;
1010;SDS011;494;48.744;10.106;2023-07-29T19:09:35;11.50;;;5.20;;
1010;SDS011;494;48.744;10.106;2023-07-29T19:12:53;11.20;;;4.97;;
1010;SDS011;494;48.744;10.106;2023-07-29T19:15:50;13.20;;;5.70;;
1010;SDS011;494;48.744;10.106;2023-07-29T19:18:49;11.90;;;5.30;;
1010;SDS011;494;48.744;10.106;2023-07-29T19:21:58;11.20;;;5.00;;
1010;SDS011;494;48.744;10.106;2023-07-29T19:25:01;12.10;;;5.20;;
1010;SDS011;494;48.744;10.106;2023-07-29T19:27:44;14.90;;;6.10;;
1010;SDS011;494;48.744;10.106;2023-07-29T19:30:28;12.70;;;5.30;;
1010;SDS011;494;48.744;10.106;2023-07-29T19:33:41;13.00;;;5.43;;
1010;SDS011;494;48.744;10.106;2023-07-29T19:36:23;16.03;;;5.33;;
1010;SDS011;494;48.744;10.106;2023-07-29T19:39:11;14.10;;;5.40;;
1010;SDS011;494;48.744;10.106;2023-07-29T19:42:12;12.47;;;5.20;;
1010;SDS011;494;48.744;10.106;2023-07-29T19:45:00;13.60;;;5.50;;
1010;SDS011;494;48.744;10.106;2023-07-29T19:47:40;12.93;;;5.70;;
1010;SDS011;494;48.744;10.106;2023-07-29T19:50:35;12.60;;;5.37;;
1010;SDS011;494;48.744;10.106;2023-07-29T19:53:33;15.30;;;7.03;;